UUOO/VOZ METAR and TAF weather

Enter ICAO airport designator
Station Type Date Time Source
UUOO METAR 2020/10/29 16:30 UTC NOAA

UUOO 291630Z 10005MPS 9999 BKN020 08/M00 Q1019 R12/090070 NOSIG RMK QFE750


Station Type Date Time Source
UUOO Decoded METAR 2020/10/29 16:30 UTC NOAA

Voronez, Russia (UUOO) 51-39N 039-15E 104M
Oct 29, 2020 - 12:30 PM EDT / 2020.10.29 1630 UTC
Wind: from the E (100 degrees) at 11 MPH (10 KT):0
Visibility: greater than 7 mile(s):0
Sky conditions: mostly cloudy
Temperature: 46 F (8 C)
Dew Point: 32 F (0 C)
Relative Humidity: 56%
Pressure (altimeter): 30.09 in. Hg (1019 hPa)
ob: UUOO 291630Z 10005MPS 9999 BKN020 08/M00 Q1019 R12/090070 NOSIG RMK QFE750
cycle: 16

Station Type Date Time Source
UUOO TAF 2019/08/12 03:33 UTC NOAA

TAF COR TAF COR UUOO 120159 1203/1212 31003MPS CAVOK

Example: see airport list